Time;durP1;ratioP1;P1;durP2;ratioP2;P2;SDS_P1;SDS_P2;PMS_P1;PMS_P2;Temp;Humidity;BMP_temperature;BMP_pressure;BME280_temperature;BME280_humidity;BME280_pressure;Samples;Min_cycle;Max_cycle;Signal;HPM_P1;HPM_P2
2021/03/26 00:00:37;;;;;;;20.70;10.70;;;8.30;99.90;;;;;;5088853;28;20201;-66
2021/03/26 00:03:08;;;;;;;19.10;10.77;;;8.40;99.90;;;;;;5086071;28;20192;-66
2021/03/26 00:05:36;;;;;;;18.20;10.20;;;8.50;99.90;;;;;;5081593;28;20293;-65
2021/03/26 00:08:05;;;;;;;21.00;11.03;;;8.70;99.90;;;;;;5082038;28;20311;-64
2021/03/26 00:10:32;;;;;;;16.70;10.30;;;8.70;99.90;;;;;;5087460;28;20688;-66
2021/03/26 00:12:58;;;;;;;17.63;10.70;;;8.80;99.90;;;;;;5084410;28;20284;-65
2021/03/26 00:15:25;;;;;;;18.07;10.63;;;8.70;99.90;;;;;;5067907;28;20337;-65
2021/03/26 00:17:51;;;;;;;17.70;10.97;;;8.70;99.90;;;;;;5083737;28;20229;-65
2021/03/26 00:20:18;;;;;;;17.03;10.73;;;8.50;99.90;;;;;;5084812;28;20199;-65
2021/03/26 00:22:44;;;;;;;15.87;10.73;;;8.30;99.90;;;;;;5066853;28;20223;-64
2021/03/26 00:25:11;;;;;;;20.83;11.67;;;8.20;99.90;;;;;;5069031;28;20209;-64
2021/03/26 00:27:38;;;;;;;18.90;10.80;;;8.20;99.90;;;;;;5065135;28;20225;-66
2021/03/26 00:30:07;;;;;;;17.13;10.63;;;8.00;99.90;;;;;;5084679;28;20243;-66
2021/03/26 00:32:35;;;;;;;17.70;10.40;;;8.00;99.90;;;;;;5082339;28;20722;-65
2021/03/26 00:35:03;;;;;;;14.27;10.70;;;8.00;99.90;;;;;;5083694;28;20417;-66
2021/03/26 00:37:29;;;;;;;14.80;10.47;;;8.10;99.90;;;;;;5084871;28;20316;-64
2021/03/26 00:39:55;;;;;;;15.27;10.17;;;7.80;99.90;;;;;;5086337;28;20212;-65
2021/03/26 00:42:22;;;;;;;20.57;10.33;;;7.70;99.90;;;;;;5086029;28;20228;-65
2021/03/26 00:44:48;;;;;;;15.50;10.63;;;7.90;99.90;;;;;;5068578;28;20266;-65
2021/03/26 00:47:14;;;;;;;14.77;10.00;;;8.00;99.90;;;;;;5079258;28;20682;-64
2021/03/26 00:49:41;;;;;;;19.63;11.77;;;8.00;99.90;;;;;;5086146;28;20202;-65
2021/03/26 00:52:09;;;;;;;16.83;10.90;;;8.20;99.90;;;;;;5069165;28;20214;-64
2021/03/26 00:54:36;;;;;;;15.43;9.80;;;8.30;99.90;;;;;;5049722;28;20208;-64
2021/03/26 00:57:04;;;;;;;16.93;10.30;;;8.30;99.90;;;;;;5065992;28;20216;-65
2021/03/26 00:59:39;;;;;;;14.07;9.73;;;8.20;99.90;;;;;;5069594;28;20207;-64
2021/03/26 01:02:06;;;;;;;16.43;9.50;;;8.10;99.90;;;;;;5067236;28;20229;-65
2021/03/26 01:04:33;;;;;;;17.47;10.60;;;8.30;99.90;;;;;;5051528;28;20208;-65
2021/03/26 01:06:59;;;;;;;14.83;9.80;;;8.10;99.90;;;;;;5078872;28;20206;-66
2021/03/26 01:09:25;;;;;;;14.40;9.23;;;8.10;99.90;;;;;;5069821;28;20591;-65
2021/03/26 01:11:51;;;;;;;14.27;9.50;;;8.10;99.90;;;;;;5086030;28;20647;-65
2021/03/26 01:14:22;;;;;;;17.70;10.30;;;7.90;99.90;;;;;;5087100;28;20244;-65
2021/03/26 01:16:49;;;;;;;16.63;10.33;;;7.90;99.90;;;;;;5064869;28;20276;-66
2021/03/26 01:19:17;;;;;;;16.30;10.23;;;7.70;99.90;;;;;;5079243;28;20207;-64
2021/03/26 01:21:44;;;;;;;18.70;10.37;;;7.90;99.90;;;;;;5064853;28;20208;-64
2021/03/26 01:24:14;;;;;;;19.67;10.53;;;8.00;99.90;;;;;;5087705;28;20663;-65
2021/03/26 01:26:40;;;;;;;15.23;9.70;;;7.80;99.90;;;;;;5082915;28;20755;-65
2021/03/26 01:29:07;;;;;;;17.13;10.63;;;7.80;99.90;;;;;;5049004;28;20238;-66
2021/03/26 01:31:34;;;;;;;15.83;10.43;;;7.90;99.90;;;;;;5084977;28;20602;-65
2021/03/26 01:34:02;;;;;;;20.13;10.90;;;8.00;99.90;;;;;;5084781;28;20570;-66
2021/03/26 01:36:29;;;;;;;18.07;10.47;;;8.00;99.90;;;;;;5052861;28;20200;-64
2021/03/26 01:38:56;;;;;;;19.47;11.00;;;7.90;99.90;;;;;;5083622;28;20628;-64
2021/03/26 01:41:23;;;;;;;20.37;11.33;;;7.80;99.90;;;;;;5068912;28;20287;-66
2021/03/26 01:43:49;;;;;;;18.33;10.90;;;7.90;99.90;;;;;;5081280;28;20204;-65
2021/03/26 01:46:16;;;;;;;16.37;10.67;;;7.80;99.90;;;;;;5068413;28;20274;-66
2021/03/26 01:48:50;;;;;;;20.17;11.63;;;7.70;99.90;;;;;;5084555;28;20632;-66
2021/03/26 01:51:22;;;;;;;16.90;11.00;;;7.80;99.90;;;;;;5082668;28;20608;-65
2021/03/26 01:53:49;;;;;;;20.77;12.03;;;7.70;99.90;;;;;;5082686;28;20200;-65
2021/03/26 01:56:17;;;;;;;18.23;11.63;;;7.90;99.90;;;;;;5059859;28;20650;-65
2021/03/26 01:58:43;;;;;;;18.73;12.07;;;7.80;99.90;;;;;;5087030;28;20251;-66
2021/03/26 02:01:21;;;;;;;17.90;11.33;;;7.80;99.90;;;;;;5083403;28;20241;-64
2021/03/26 02:03:50;;;;;;;20.03;11.80;;;7.90;99.90;;;;;;5082358;28;20189;-64
2021/03/26 02:06:27;;;;;;;19.67;11.27;;;7.70;99.90;;;;;;5065191;28;20540;-64
2021/03/26 02:09:12;;;;;;;18.90;12.63;;;7.80;99.90;;;;;;5079684;28;20194;-66
2021/03/26 02:11:49;;;;;;;18.03;12.60;;;7.80;99.90;;;;;;5062988;28;20225;-66
2021/03/26 02:14:21;;;;;;;24.37;13.00;;;7.90;99.90;;;;;;5083731;28;20289;-64
2021/03/26 02:16:49;;;;;;;26.43;13.73;;;7.90;99.90;;;;;;5086013;28;20774;-66
2021/03/26 02:19:21;;;;;;;22.20;12.57;;;7.90;99.90;;;;;;5065901;28;20218;-66
2021/03/26 02:21:47;;;;;;;27.37;13.53;;;7.90;99.90;;;;;;5088713;28;20248;-66
2021/03/26 02:24:14;;;;;;;19.80;12.40;;;7.60;99.90;;;;;;5089240;28;20203;-66
2021/03/26 02:26:45;;;;;;;25.67;12.80;;;7.50;99.90;;;;;;5049930;28;20653;-65
2021/03/26 02:29:26;;;;;;;23.57;14.60;;;7.60;99.90;;;;;;5089460;28;20294;-66
2021/03/26 02:32:07;;;;;;;21.77;12.47;;;7.70;99.90;;;;;;5066595;28;20208;-64
2021/03/26 02:34:34;;;;;;;21.90;13.37;;;7.70;99.90;;;;;;5087102;28;20292;-64
2021/03/26 02:37:08;;;;;;;22.13;13.37;;;7.70;99.90;;;;;;5052757;28;20246;-66
2021/03/26 02:39:45;;;;;;;24.50;14.17;;;7.60;99.90;;;;;;5089029;28;20207;-66
2021/03/26 02:42:28;;;;;;;24.20;14.40;;;7.70;99.90;;;;;;5084886;28;20606;-66
2021/03/26 02:45:36;;;;;;;23.43;13.57;;;7.90;99.90;;;;;;5067836;28;20629;-66
2021/03/26 02:48:19;;;;;;;23.57;14.30;;;7.90;99.90;;;;;;5081374;28;20216;-65
2021/03/26 02:51:09;;;;;;;23.13;15.00;;;7.80;99.90;;;;;;5084855;28;20199;-66
2021/03/26 02:53:50;;;;;;;23.47;12.97;;;7.70;99.90;;;;;;5087141;28;20231;-66
2021/03/26 02:56:22;;;;;;;25.87;14.27;;;7.90;99.90;;;;;;5086037;28;20195;-65
2021/03/26 02:59:00;;;;;;;23.53;14.60;;;8.00;99.90;;;;;;5090605;28;20252;-66
2021/03/26 03:01:35;;;;;;;23.83;15.77;;;8.10;99.90;;;;;;5063632;28;20230;-65
2021/03/26 03:04:28;;;;;;;25.60;14.30;;;8.00;99.90;;;;;;5067375;28;20203;-64
2021/03/26 03:07:01;;;;;;;26.80;14.13;;;8.10;99.90;;;;;;5056072;28;20240;-64
2021/03/26 03:09:30;;;;;;;27.57;14.73;;;8.20;99.90;;;;;;5084557;28;20191;-65
2021/03/26 03:12:08;;;;;;;23.13;13.87;;;8.00;99.90;;;;;;5087286;28;20217;-65
2021/03/26 03:14:42;;;;;;;26.40;15.43;;;7.90;99.90;;;;;;5087047;28;20257;-64
2021/03/26 03:17:33;;;;;;;23.67;13.70;;;7.90;99.90;;;;;;5069181;28;20236;-64
2021/03/26 03:20:28;;;;;;;28.03;15.13;;;7.90;99.90;;;;;;5066315;28;20204;-65
2021/03/26 03:23:19;;;;;;;22.10;13.27;;;7.90;99.90;;;;;;5083532;28;20678;-65
2021/03/26 03:25:45;;;;;;;27.00;13.60;;;7.80;99.90;;;;;;5061214;28;20295;-65
2021/03/26 03:28:28;;;;;;;25.90;14.60;;;7.70;99.90;;;;;;5066564;28;20214;-66
2021/03/26 03:31:03;;;;;;;26.80;15.23;;;7.80;99.90;;;;;;5081184;28;20235;-64
2021/03/26 03:34:06;;;;;;;27.00;15.93;;;7.60;99.90;;;;;;5087200;28;20203;-66
2021/03/26 03:36:46;;;;;;;24.03;14.80;;;7.70;99.90;;;;;;5065336;28;20542;-65
2021/03/26 03:39:26;;;;;;;26.87;14.80;;;7.70;99.90;;;;;;5089394;28;20215;-66
2021/03/26 03:42:09;;;;;;;24.33;14.70;;;7.70;99.90;;;;;;5085086;28;20697;-64
2021/03/26 03:44:45;;;;;;;25.23;14.60;;;7.70;99.90;;;;;;5087654;28;20272;-64
2021/03/26 03:47:19;;;;;;;23.80;13.03;;;7.70;99.90;;;;;;5065598;28;20302;-68
2021/03/26 03:49:56;;;;;;;26.17;14.37;;;7.70;99.90;;;;;;5081880;28;20290;-67
2021/03/26 03:52:42;;;;;;;25.83;13.90;;;7.70;99.90;;;;;;5086487;28;21651;-64
2021/03/26 03:55:34;;;;;;;23.70;14.00;;;7.80;99.90;;;;;;5065679;28;20206;-66
2021/03/26 03:58:18;;;;;;;24.57;13.37;;;7.70;99.90;;;;;;5083214;28;20228;-65
2021/03/26 04:01:11;;;;;;;25.70;14.33;;;7.70;99.90;;;;;;5082775;28;20260;-66
2021/03/26 04:03:50;;;;;;;25.87;13.47;;;7.70;99.90;;;;;;5081784;28;20348;-64
2021/03/26 04:06:59;;;;;;;23.90;13.87;;;7.70;99.90;;;;;;5083301;28;20199;-64
2021/03/26 04:09:31;;;;;;;25.83;14.63;;;7.80;99.90;;;;;;5087151;28;20538;-64
2021/03/26 04:12:03;;;;;;;23.23;13.43;;;7.80;99.90;;;;;;5081364;28;20554;-66
2021/03/26 04:14:43;;;;;;;24.90;13.73;;;7.80;99.90;;;;;;5087898;28;20238;-64
2021/03/26 04:17:22;;;;;;;22.50;13.93;;;7.80;99.90;;;;;;5079711;28;20207;-64
2021/03/26 04:19:56;;;;;;;26.33;13.37;;;7.90;99.90;;;;;;5081501;28;20330;-66
2021/03/26 04:22:32;;;;;;;25.13;14.10;;;7.90;99.90;;;;;;5067138;28;20229;-65
2021/03/26 04:25:05;;;;;;;25.83;14.30;;;7.90;99.90;;;;;;5088268;28;20194;-66
2021/03/26 04:27:42;;;;;;;23.57;12.13;;;7.90;99.90;;;;;;5082973;28;20288;-66
2021/03/26 04:30:22;;;;;;;23.97;13.50;;;7.80;99.90;;;;;;5088840;28;20194;-64
2021/03/26 04:32:49;;;;;;;24.53;13.20;;;7.90;99.90;;;;;;5084206;28;20217;-66
2021/03/26 04:35:18;;;;;;;23.30;13.57;;;7.90;99.90;;;;;;5085830;28;20311;-66
2021/03/26 04:38:02;;;;;;;22.63;13.53;;;7.90;99.90;;;;;;5081137;28;20198;-64
2021/03/26 04:40:28;;;;;;;22.57;13.37;;;7.90;99.90;;;;;;5085507;28;20651;-65
2021/03/26 04:43:10;;;;;;;25.53;15.00;;;7.90;99.90;;;;;;5086757;28;20206;-66
2021/03/26 04:46:02;;;;;;;24.00;13.67;;;7.80;99.90;;;;;;5088375;28;20725;-65
2021/03/26 04:48:36;;;;;;;22.77;13.10;;;7.90;99.90;;;;;;5085553;28;20216;-64
2021/03/26 04:51:07;;;;;;;23.80;13.17;;;7.80;99.90;;;;;;5085025;28;20619;-66
2021/03/26 04:53:41;;;;;;;24.97;14.33;;;7.90;99.90;;;;;;5069534;28;20257;-66
2021/03/26 04:56:14;;;;;;;27.77;14.50;;;7.80;99.90;;;;;;5087378;28;20656;-64
2021/03/26 04:58:46;;;;;;;25.53;13.47;;;7.80;99.90;;;;;;5066899;28;20200;-66
2021/03/26 05:01:15;;;;;;;22.43;12.30;;;7.80;99.90;;;;;;5068310;28;20645;-64
2021/03/26 05:03:52;;;;;;;27.87;14.33;;;7.80;99.90;;;;;;5084751;28;20248;-66
2021/03/26 05:06:31;;;;;;;25.27;13.70;;;7.80;99.90;;;;;;5080129;28;20199;-67
2021/03/26 05:09:31;;;;;;;24.03;14.33;;;7.90;99.90;;;;;;5087129;28;20195;-66
2021/03/26 05:12:09;;;;;;;29.77;13.57;;;7.80;99.90;;;;;;5074088;28;20209;-66
2021/03/26 05:14:51;;;;;;;23.80;12.47;;;7.70;99.90;;;;;;5086019;28;20553;-66
2021/03/26 05:17:24;;;;;;;22.90;13.57;;;7.80;99.90;;;;;;5062871;28;20292;-66
2021/03/26 05:20:06;;;;;;;25.30;13.57;;;7.80;99.90;;;;;;5069556;28;20203;-66
2021/03/26 05:22:55;;;;;;;22.10;11.90;;;7.80;99.90;;;;;;5083227;28;20202;-64
2021/03/26 05:25:36;;;;;;;27.07;14.23;;;7.90;99.90;;;;;;5083088;28;20202;-66
2021/03/26 05:28:06;;;;;;;22.97;13.83;;;7.80;99.90;;;;;;5086697;28;20264;-65
2021/03/26 05:30:38;;;;;;;26.53;14.43;;;7.80;99.90;;;;;;5084694;28;20204;-66
2021/03/26 05:33:24;;;;;;;24.83;14.13;;;7.90;99.90;;;;;;5086177;28;20578;-65
2021/03/26 05:35:55;;;;;;;23.30;13.03;;;7.90;99.90;;;;;;5082320;28;20223;-64
2021/03/26 05:38:32;;;;;;;22.63;12.50;;;7.90;99.90;;;;;;5084150;28;20669;-66
2021/03/26 05:41:31;;;;;;;26.90;14.03;;;7.80;99.90;;;;;;5080389;28;20254;-66
2021/03/26 05:44:16;;;;;;;32.00;14.57;;;7.90;99.90;;;;;;5081288;28;20281;-64
2021/03/26 05:47:10;;;;;;;23.97;13.23;;;8.00;99.90;;;;;;5065943;28;20203;-66
2021/03/26 05:49:45;;;;;;;24.50;13.47;;;7.90;99.90;;;;;;5082177;28;20187;-66
2021/03/26 05:52:17;;;;;;;22.97;13.27;;;7.80;99.90;;;;;;5062875;28;20736;-65
2021/03/26 05:55:23;;;;;;;23.37;12.60;;;8.00;99.90;;;;;;5088415;28;20203;-65
2021/03/26 05:58:01;;;;;;;23.80;13.07;;;7.90;99.90;;;;;;5085264;28;20234;-66
2021/03/26 06:01:01;;;;;;;24.47;12.90;;;7.90;99.90;;;;;;5087122;28;20308;-66
2021/03/26 06:04:19;;;;;;;23.13;12.93;;;7.90;99.90;;;;;;5087111;28;20282;-66
2021/03/26 06:07:34;;;;;;;25.60;14.33;;;8.00;99.90;;;;;;5069170;28;20296;-65
2021/03/26 06:10:22;;;;;;;21.10;12.10;;;8.00;99.90;;;;;;5080156;28;20248;-66
2021/03/26 06:13:16;;;;;;;23.97;13.53;;;7.90;99.90;;;;;;5069220;28;20281;-66
2021/03/26 06:15:50;;;;;;;22.93;12.50;;;8.00;99.90;;;;;;5086037;28;20707;-66
2021/03/26 06:18:46;;;;;;;26.20;13.77;;;8.00;99.90;;;;;;5089517;28;20192;-64
2021/03/26 06:21:30;;;;;;;21.07;13.13;;;8.10;99.90;;;;;;5069223;28;20746;-67
2021/03/26 06:24:26;;;;;;;30.50;14.03;;;8.10;99.90;;;;;;5083502;28;20342;-64
2021/03/26 06:27:17;;;;;;;25.37;13.60;;;8.20;99.90;;;;;;5086226;28;20227;-65
2021/03/26 06:30:14;;;;;;;22.10;13.00;;;8.10;99.90;;;;;;5090905;28;20303;-64
2021/03/26 06:32:53;;;;;;;24.77;13.83;;;8.10;99.90;;;;;;5084882;28;20304;-65
2021/03/26 06:35:51;;;;;;;24.63;13.93;;;8.10;99.90;;;;;;5069225;28;20303;-65
2021/03/26 06:39:12;;;;;;;21.23;12.07;;;8.20;99.90;;;;;;5065821;28;20197;-64
2021/03/26 06:41:38;;;;;;;23.00;13.43;;;8.20;99.90;;;;;;4999665;28;20252;-67
2021/03/26 06:44:39;;;;;;;24.93;14.17;;;8.20;99.90;;;;;;5071189;28;20463;-64
2021/03/26 06:47:20;;;;;;;25.53;14.03;;;8.30;99.90;;;;;;5084551;28;20302;-64
2021/03/26 06:50:16;;;;;;;23.70;13.73;;;8.30;99.90;;;;;;5062388;28;20197;-65
2021/03/26 06:53:17;;;;;;;22.90;13.90;;;8.20;99.90;;;;;;5086644;28;20719;-65
2021/03/26 06:55:55;;;;;;;28.17;13.63;;;8.30;99.90;;;;;;5082872;28;20669;-66
2021/03/26 06:58:33;;;;;;;26.40;13.80;;;8.20;99.90;;;;;;5087312;28;20591;-64
2021/03/26 07:01:17;;;;;;;25.53;13.47;;;8.20;99.90;;;;;;5079146;28;20259;-65
2021/03/26 07:04:08;;;;;;;27.17;13.60;;;8.30;99.90;;;;;;5067079;28;20244;-64
2021/03/26 07:07:04;;;;;;;31.43;15.63;;;8.30;99.90;;;;;;5081342;28;20524;-65
2021/03/26 07:09:51;;;;;;;25.90;14.07;;;8.40;99.90;;;;;;5089486;28;20281;-65
2021/03/26 07:12:31;;;;;;;26.33;14.33;;;8.70;99.90;;;;;;5064132;28;20294;-64
2021/03/26 07:14:57;;;;;;;21.67;13.57;;;9.00;99.90;;;;;;5084065;28;20199;-63
2021/03/26 07:17:38;;;;;;;22.43;13.03;;;9.40;99.90;;;;;;5062224;28;20636;-63
2021/03/26 07:20:29;;;;;;;26.67;14.53;;;9.20;99.90;;;;;;5076169;28;20286;-63
2021/03/26 07:23:17;;;;;;;26.47;14.33;;;9.00;99.90;;;;;;5078949;28;20592;-65
2021/03/26 07:26:04;;;;;;;29.00;13.13;;;9.30;99.90;;;;;;5077215;28;20296;-64
2021/03/26 07:28:48;;;;;;;28.57;14.60;;;9.60;99.90;;;;;;5081880;28;20250;-65
2021/03/26 07:31:44;;;;;;;22.10;13.20;;;9.40;99.90;;;;;;5083771;28;20198;-63
2021/03/26 07:34:42;;;;;;;20.40;12.43;;;9.60;74.00;;;;;;5088362;28;20191;-63
2021/03/26 07:37:31;;;;;;;21.40;12.10;;;9.70;94.20;;;;;;5086162;28;20630;-64
2021/03/26 07:40:38;;;;;;;22.57;12.77;;;9.60;74.30;;;;;;5082906;28;20629;-63
2021/03/26 07:43:32;;;;;;;27.63;14.27;;;9.70;95.50;;;;;;5018072;28;20665;-63
2021/03/26 07:46:17;;;;;;;27.10;13.93;;;9.90;45.60;;;;;;4997522;28;20699;-63
2021/03/26 07:49:02;;;;;;;20.60;11.83;;;9.90;36.00;;;;;;5016884;28;20235;-64
2021/03/26 07:51:53;;;;;;;19.13;12.03;;;10.10;1.00;;;;;;5019529;28;20224;-64
2021/03/26 07:54:49;;;;;;;23.63;13.57;;;10.20;1.00;;;;;;5023713;28;20671;-63
2021/03/26 07:57:45;;;;;;;23.20;12.83;;;10.30;1.00;;;;;;5022932;28;20215;-64
2021/03/26 08:00:44;;;;;;;21.50;13.17;;;10.50;1.00;;;;;;5027293;28;20212;-64
2021/03/26 08:03:40;;;;;;;17.87;11.50;;;10.60;1.00;;;;;;5016705;28;20326;-64
2021/03/26 08:06:18;;;;;;;22.03;11.87;;;10.80;1.00;;;;;;5018914;28;20666;-63
2021/03/26 08:09:03;;;;;;;29.00;13.67;;;11.10;1.00;;;;;;5024183;28;20311;-64
2021/03/26 08:11:42;;;;;;;22.67;12.67;;;11.30;1.00;;;;;;5002981;28;20200;-64
2021/03/26 08:14:29;;;;;;;18.67;10.77;;;11.30;1.00;;;;;;5019067;28;20228;-64
2021/03/26 08:16:55;;;;;;;21.10;12.77;;;11.20;1.00;;;;;;5042417;28;20324;-64
2021/03/26 08:19:43;;;;;;;23.10;11.37;;;11.20;1.00;;;;;;5064743;28;20191;-63
2021/03/26 08:22:31;;;;;;;23.57;11.07;;;11.40;1.00;;;;;;5081538;28;20294;-64
2021/03/26 08:25:11;;;;;;;21.10;11.63;;;11.40;1.00;;;;;;5062193;28;20301;-65
2021/03/26 08:28:09;;;;;;;19.90;10.83;;;11.30;1.00;;;;;;5065747;28;20298;-63
2021/03/26 08:31:05;;;;;;;18.77;10.57;;;11.60;99.90;;;;;;5068963;28;20670;-65
2021/03/26 08:33:56;;;;;;;18.10;10.33;;;11.70;99.90;;;;;;5062833;28;20272;-64
2021/03/26 08:36:31;;;;;;;18.77;10.33;;;11.60;99.90;;;;;;5075263;28;20199;-63
2021/03/26 08:39:29;;;;;;;17.83;10.20;;;11.60;99.90;;;;;;5072800;28;20229;-66
2021/03/26 08:42:27;;;;;;;18.13;10.73;;;11.60;1.00;;;;;;5056019;28;20339;-64
2021/03/26 08:45:17;;;;;;;18.87;9.93;;;11.90;99.90;;;;;;5072947;28;20259;-65
2021/03/26 08:48:15;;;;;;;17.50;10.27;;;12.50;1.00;;;;;;5064187;28;20238;-65
2021/03/26 08:51:05;;;;;;;20.37;9.97;;;12.00;1.00;;;;;;5081554;28;20204;-63
2021/03/26 08:53:34;;;;;;;16.80;9.90;;;12.00;1.00;;;;;;5081210;28;20260;-64
2021/03/26 08:56:22;;;;;;;14.70;8.70;;;11.70;79.00;;;;;;5067196;28;20202;-64
2021/03/26 08:59:04;;;;;;;19.47;9.90;;;11.90;99.90;;;;;;5082057;28;20203;-65
2021/03/26 09:01:57;;;;;;;16.63;9.93;;;11.90;23.60;;;;;;5081939;28;20923;-64
2021/03/26 09:04:39;;;;;;;17.43;9.17;;;12.30;1.00;;;;;;5084362;28;20205;-64
2021/03/26 09:07:30;;;;;;;17.63;9.50;;;12.40;1.00;;;;;;5066876;28;20214;-64
2021/03/26 09:10:12;;;;;;;18.53;8.93;;;12.10;1.00;;;;;;5088498;28;20191;-63
2021/03/26 09:13:07;;;;;;;17.57;8.80;;;11.80;99.90;;;;;;5085393;28;20231;-64
2021/03/26 09:16:16;;;;;;;18.67;8.93;;;11.70;99.90;;;;;;5063064;28;20228;-64
2021/03/26 09:18:46;;;;;;;18.37;9.43;;;11.80;99.90;;;;;;5057292;28;20202;-66
2021/03/26 09:21:42;;;;;;;16.47;8.23;;;11.70;99.90;;;;;;5086596;28;20550;-64
2021/03/26 09:24:18;;;;;;;14.37;8.57;;;11.70;1.00;;;;;;5069736;28;20701;-64
2021/03/26 09:27:10;;;;;;;15.30;8.33;;;11.60;99.90;;;;;;5084069;28;20995;-64
2021/03/26 09:30:11;;;;;;;15.00;8.73;;;11.50;99.90;;;;;;5084358;28;20194;-64
2021/03/26 09:32:47;;;;;;;16.30;8.27;;;11.60;99.90;;;;;;5063866;28;20230;-63
2021/03/26 09:35:28;;;;;;;11.90;6.97;;;11.60;99.90;;;;;;5087006;28;20602;-64
2021/03/26 09:38:09;;;;;;;12.30;6.53;;;11.60;99.90;;;;;;5084001;28;20234;-64
2021/03/26 09:40:49;;;;;;;12.23;6.73;;;11.50;99.90;;;;;;5088210;28;20285;-65
2021/03/26 09:43:49;;;;;;;10.80;6.33;;;11.60;99.90;;;;;;5080926;28;20206;-64
2021/03/26 09:46:36;;;;;;;17.60;6.20;;;11.50;81.80;;;;;;5078514;28;20234;-64
2021/03/26 09:49:33;;;;;;;14.47;7.40;;;11.50;41.40;;;;;;5083016;28;20587;-64
2021/03/26 09:52:39;;;;;;;12.37;7.27;;;11.60;99.90;;;;;;5084584;28;20214;-64
2021/03/26 09:55:15;;;;;;;10.07;5.80;;;11.70;99.90;;;;;;5081777;28;20730;-63
2021/03/26 09:57:45;;;;;;;18.70;6.70;;;11.70;27.70;;;;;;5067126;28;20523;-64
2021/03/26 10:00:49;;;;;;;9.63;5.70;;;11.70;1.00;;;;;;5063882;28;20207;-64
2021/03/26 10:03:24;;;;;;;9.23;5.30;;;11.90;1.00;;;;;;5082469;28;20727;-64
2021/03/26 10:06:24;;;;;;;11.47;5.73;;;11.90;1.00;;;;;;5079267;28;20235;-64
2021/03/26 10:11:31;;;;;;;14.00;5.20;;;11.90;1.00;;;;;;5083959;28;20343;-66
2021/03/26 10:14:17;;;;;;;11.47;5.60;;;11.90;1.00;;;;;;5079722;28;20202;-64
2021/03/26 10:17:10;;;;;;;7.67;5.80;;;12.00;99.90;;;;;;5074652;28;20191;-65
2021/03/26 10:19:45;;;;;;;10.00;4.83;;;12.00;99.90;;;;;;5077003;28;20230;-65
2021/03/26 10:22:26;;;;;;;9.00;5.37;;;12.00;1.00;;;;;;5070055;28;20205;-66
2021/03/26 10:25:16;;;;;;;10.60;5.27;;;12.20;3.60;;;;;;5075790;28;20192;-65
2021/03/26 10:27:55;;;;;;;11.00;6.00;;;12.20;99.90;;;;;;5073398;28;20289;-65
2021/03/26 10:30:36;;;;;;;11.30;5.47;;;12.50;1.00;;;;;;5068759;28;20566;-65
2021/03/26 10:33:11;;;;;;;7.40;4.67;;;12.80;1.00;;;;;;5064609;28;20536;-65
2021/03/26 10:35:47;;;;;;;8.77;5.63;;;12.70;1.00;;;;;;5059447;28;20199;-65
2021/03/26 10:38:21;;;;;;;13.80;4.90;;;12.70;1.00;;;;;;5074927;28;20709;-65
2021/03/26 10:41:12;;;;;;;19.10;4.50;;;12.80;1.00;;;;;;5083972;28;20657;-66
2021/03/26 10:43:49;;;;;;;3.13;2.30;;;12.80;99.90;;;;;;5074350;28;20207;-66
2021/03/26 10:46:24;;;;;;;7.43;3.40;;;12.70;99.90;;;;;;5062905;28;20230;-65
2021/03/26 10:49:10;;;;;;;6.27;3.13;;;12.80;1.00;;;;;;5062085;28;20295;-58
2021/03/26 10:51:55;;;;;;;7.07;3.50;;;13.30;99.90;;;;;;5081665;28;20630;-58
2021/03/26 10:54:41;;;;;;;8.70;3.30;;;13.60;1.00;;;;;;5076838;28;20201;-58
2021/03/26 10:57:16;;;;;;;5.43;2.77;;;13.60;1.00;;;;;;5063009;28;20616;-59
2021/03/26 10:59:51;;;;;;;7.13;2.60;;;13.50;1.00;;;;;;5085520;28;21495;-59
2021/03/26 11:02:42;;;;;;;4.50;2.80;;;13.70;1.00;;;;;;5081052;28;20200;-59
2021/03/26 11:05:24;;;;;;;5.07;2.10;;;13.90;1.00;;;;;;5082547;28;20188;-57
2021/03/26 11:07:59;;;;;;;6.87;2.43;;;13.50;1.00;;;;;;5078113;28;20270;-58
2021/03/26 11:10:51;;;;;;;7.97;2.50;;;13.70;1.00;;;;;;5083846;28;20644;-57
2021/03/26 11:13:54;;;;;;;3.20;1.63;;;13.90;1.00;;;;;;5032326;28;20638;-57
2021/03/26 11:16:24;;;;;;;9.07;2.67;;;13.50;1.00;;;;;;5080036;28;20199;-58
2021/03/26 11:18:58;;;;;;;5.97;2.47;;;13.70;99.90;;;;;;5077658;28;20212;-58
2021/03/26 11:21:34;;;;;;;5.83;2.60;;;14.10;99.90;;;;;;5079357;28;20909;-59
2021/03/26 11:24:05;;;;;;;5.00;2.20;;;14.10;1.00;;;;;;5082633;28;20207;-58
2021/03/26 11:26:36;;;;;;;6.53;3.00;;;14.10;99.90;;;;;;5082847;28;20412;-58
2021/03/26 11:29:06;;;;;;;7.63;2.80;;;13.90;1.00;;;;;;5081100;28;20306;-57
2021/03/26 11:31:58;;;;;;;3.93;2.87;;;13.70;99.90;;;;;;5074184;28;20242;-58
2021/03/26 11:34:30;;;;;;;6.13;3.40;;;13.60;99.90;;;;;;5085720;28;20360;-59
2021/03/26 11:37:00;;;;;;;10.67;3.30;;;13.60;1.00;;;;;;5086090;28;20245;-58
2021/03/26 11:39:38;;;;;;;5.60;2.80;;;13.50;99.90;;;;;;5085283;28;20200;-59
2021/03/26 11:42:08;;;;;;;4.00;2.40;;;13.70;1.00;;;;;;5082137;28;20251;-58
2021/03/26 11:44:59;;;;;;;6.10;3.03;;;14.00;99.90;;;;;;5080703;28;20236;-58
2021/03/26 11:47:25;;;;;;;4.80;2.03;;;14.20;1.00;;;;;;5082361;28;20203;-58
2021/03/26 11:50:09;;;;;;;4.27;2.43;;;13.90;99.90;;;;;;5080391;28;20196;-59
2021/03/26 11:52:44;;;;;;;5.33;2.23;;;13.90;1.00;;;;;;5085519;28;20266;-59
2021/03/26 11:55:21;;;;;;;7.87;2.63;;;14.20;99.90;;;;;;5089575;28;20191;-58
2021/03/26 11:58:20;;;;;;;3.37;2.17;;;14.40;99.90;;;;;;5078834;28;20557;-57
2021/03/26 12:00:54;;;;;;;10.00;2.20;;;14.50;1.00;;;;;;5083113;28;20234;-58
2021/03/26 12:03:54;;;;;;;4.67;2.00;;;14.50;1.00;;;;;;5082692;28;20220;-57
2021/03/26 12:06:34;;;;;;;2.60;1.37;;;14.50;1.00;;;;;;5068168;28;20263;-58
2021/03/26 12:09:05;;;;;;;4.27;1.80;;;14.60;1.00;;;;;;5084538;28;20687;-58
2021/03/26 12:11:45;;;;;;;4.40;1.93;;;14.70;1.00;;;;;;5079557;28;20196;-57
2021/03/26 12:14:38;;;;;;;4.10;1.80;;;14.80;1.00;;;;;;5078138;28;20548;-58
2021/03/26 12:17:27;;;;;;;2.30;1.23;;;15.00;1.00;;;;;;5054227;28;20585;-58
2021/03/26 12:20:07;;;;;;;6.30;1.70;;;15.10;1.00;;;;;;5050236;28;20541;-57
2021/03/26 12:22:45;;;;;;;2.43;1.60;;;15.20;1.00;;;;;;5076485;28;20229;-57
2021/03/26 12:25:30;;;;;;;5.10;1.60;;;14.90;1.00;;;;;;5073804;28;20626;-58
2021/03/26 12:28:04;;;;;;;3.30;2.00;;;14.80;1.00;;;;;;5074080;28;20342;-58
2021/03/26 12:30:42;;;;;;;5.07;1.77;;;14.70;1.00;;;;;;5075587;28;20262;-57
2021/03/26 12:33:44;;;;;;;3.03;1.80;;;14.90;1.00;;;;;;5074264;28;20213;-58
2021/03/26 12:36:22;;;;;;;8.07;1.73;;;14.90;1.00;;;;;;5071978;28;20197;-57
2021/03/26 12:39:08;;;;;;;6.73;1.77;;;14.50;1.00;;;;;;5074793;28;20207;-57
2021/03/26 12:41:49;;;;;;;2.83;1.90;;;14.30;1.00;;;;;;5076324;28;20692;-58
2021/03/26 12:44:22;;;;;;;1.50;1.20;;;14.30;1.00;;;;;;5076127;28;20209;-59
2021/03/26 12:47:13;;;;;;;2.27;1.33;;;14.30;1.00;;;;;;5073905;28;20256;-59
2021/03/26 12:49:56;;;;;;;2.50;1.37;;;14.20;1.00;;;;;;5075892;28;20311;-59
2021/03/26 12:52:47;;;;;;;1.67;1.43;;;14.20;1.00;;;;;;5079740;28;20278;-58
2021/03/26 12:55:29;;;;;;;3.43;1.40;;;14.60;1.00;;;;;;5079761;28;20200;-58
2021/03/26 12:58:24;;;;;;;5.03;2.00;;;14.80;1.00;;;;;;5079844;28;20264;-58
2021/03/26 13:01:11;;;;;;;1.97;1.50;;;14.20;1.00;;;;;;5077642;28;20300;-58
2021/03/26 13:04:01;;;;;;;3.20;1.13;;;14.30;1.00;;;;;;5084521;28;20304;-58
2021/03/26 13:06:40;;;;;;;5.90;1.90;;;14.40;1.00;;;;;;5082055;28;20224;-57
2021/03/26 13:09:31;;;;;;;3.17;1.40;;;14.50;1.00;;;;;;5078143;28;20228;-57
2021/03/26 13:12:05;;;;;;;3.77;1.27;;;14.50;1.00;;;;;;5080054;28;20225;-58
2021/03/26 13:14:42;;;;;;;2.60;1.03;;;14.30;1.00;;;;;;5083072;28;20201;-58
2021/03/26 13:17:22;;;;;;;2.53;1.33;;;14.00;1.00;;;;;;5080255;28;20279;-58
2021/03/26 13:19:50;;;;;;;4.60;1.43;;;13.80;1.00;;;;;;5082240;28;20554;-58
2021/03/26 13:22:32;;;;;;;1.47;1.00;;;13.80;1.00;;;;;;5084282;28;20267;-58
2021/03/26 13:25:01;;;;;;;2.33;0.87;;;13.90;1.00;;;;;;5080112;28;20227;-58
2021/03/26 13:27:34;;;;;;;4.33;1.10;;;14.30;1.00;;;;;;5082733;28;20674;-58
2021/03/26 13:30:09;;;;;;;3.27;0.80;;;14.60;1.00;;;;;;5085735;28;20222;-58
2021/03/26 13:32:58;;;;;;;5.27;1.73;;;14.20;1.00;;;;;;5084265;28;20239;-59
2021/03/26 13:35:46;;;;;;;2.00;1.00;;;14.10;1.00;;;;;;5078959;28;20300;-58
2021/03/26 13:38:46;;;;;;;1.50;0.93;;;13.70;1.00;;;;;;5077493;28;20247;-58
2021/03/26 13:41:36;;;;;;;2.30;1.10;;;13.70;1.00;;;;;;5079704;28;20322;-58
2021/03/26 13:44:47;;;;;;;3.20;1.20;;;13.70;1.00;;;;;;5085256;28;20527;-58
2021/03/26 13:47:25;;;;;;;3.40;1.10;;;13.80;1.00;;;;;;5051464;28;20766;-59
2021/03/26 13:49:56;;;;;;;4.60;1.33;;;13.60;1.00;;;;;;5087521;28;20216;-59
2021/03/26 13:52:38;;;;;;;1.70;0.90;;;13.60;1.00;;;;;;5086599;28;20565;-58